createdAt,value
2017-08-31T00:00:50.048Z,8.57
2017-08-31T00:03:20.199Z,8.10
2017-08-31T00:05:49.710Z,7.77
2017-08-31T00:08:19.552Z,8.40
2017-08-31T00:10:49.095Z,6.53
2017-08-31T00:13:18.695Z,8.87
2017-08-31T00:15:48.484Z,7.80
2017-08-31T00:18:18.024Z,6.93
2017-08-31T00:20:47.594Z,7.73
2017-08-31T00:23:18.726Z,6.90
2017-08-31T00:25:48.632Z,6.90
2017-08-31T00:28:18.163Z,7.67
2017-08-31T00:30:47.679Z,7.13
2017-08-31T00:33:18.352Z,7.33
2017-08-31T00:35:47.858Z,6.67
2017-08-31T00:38:19.451Z,8.80
2017-08-31T00:40:48.982Z,7.47
2017-08-31T00:43:18.501Z,7.60
2017-08-31T00:45:48.360Z,6.90
2017-08-31T00:48:21.837Z,8.03
2017-08-31T00:50:51.683Z,10.67
2017-08-31T00:53:21.827Z,7.20
2017-08-31T00:55:52.737Z,8.50
2017-08-31T00:58:22.389Z,7.23
2017-08-31T01:00:52.325Z,8.20
2017-08-31T01:03:22.215Z,8.57
2017-08-31T01:05:51.747Z,7.40
2017-08-31T01:08:22.328Z,7.60
2017-08-31T01:10:51.834Z,7.53
2017-08-31T01:13:21.384Z,7.67
2017-08-31T01:15:51.252Z,7.13
2017-08-31T01:18:20.762Z,6.73
2017-08-31T01:20:50.284Z,7.17
2017-08-31T01:23:19.812Z,9.63
2017-08-31T01:25:49.338Z,8.13
2017-08-31T01:28:19.240Z,7.30
2017-08-31T01:30:48.770Z,12.67
2017-08-31T01:33:17.443Z,7.43
2017-08-31T01:35:45.775Z,10.33
2017-08-31T01:38:14.482Z,23.73
2017-08-31T01:40:44.266Z,8.97
2017-08-31T01:43:13.308Z,8.50
2017-08-31T01:45:41.616Z,8.30
2017-08-31T01:48:09.928Z,11.83
2017-08-31T01:50:38.224Z,8.87
2017-08-31T01:53:06.831Z,9.20
2017-08-31T01:55:36.029Z,10.37
2017-08-31T01:58:04.342Z,12.03
2017-08-31T02:00:32.949Z,9.30
2017-08-31T02:03:02.764Z,7.73
2017-08-31T02:05:31.391Z,7.43
2017-08-31T02:07:59.689Z,13.97
2017-08-31T02:10:29.029Z,8.57
2017-08-31T02:12:57.473Z,8.87
2017-08-31T02:15:25.769Z,8.03
2017-08-31T02:17:55.181Z,8.37
2017-08-31T02:20:23.614Z,14.00
2017-08-31T02:22:51.884Z,9.50
2017-08-31T02:25:21.209Z,8.77
2017-08-31T02:27:49.502Z,9.90
2017-08-31T02:30:17.842Z,11.30
2017-08-31T02:32:46.907Z,9.63
2017-08-31T02:35:15.315Z,8.93
2017-08-31T02:37:44.286Z,12.00
2017-08-31T02:40:12.901Z,9.57
2017-08-31T02:42:41.303Z,9.83
2017-08-31T02:45:11.177Z,12.23
2017-08-31T02:47:39.716Z,10.43
2017-08-31T02:50:08.349Z,11.47
2017-08-31T02:52:38.400Z,9.27
2017-08-31T02:55:06.983Z,8.97
2017-08-31T02:57:37.561Z,8.77
2017-08-31T03:00:07.075Z,11.17
2017-08-31T03:02:37.528Z,12.93
2017-08-31T03:05:07.345Z,13.10
2017-08-31T03:07:35.553Z,11.67
2017-08-31T03:10:04.094Z,9.70
2017-08-31T03:12:32.415Z,10.50
2017-08-31T03:15:01.237Z,9.40
2017-08-31T03:17:29.529Z,9.37
2017-08-31T03:19:57.845Z,9.83
2017-08-31T03:22:26.440Z,9.57
2017-08-31T03:24:54.747Z,9.83
2017-08-31T03:27:23.042Z,9.90
2017-08-31T03:29:51.396Z,11.93
2017-08-31T03:32:19.678Z,14.83
2017-08-31T03:34:48.896Z,9.97
2017-08-31T03:37:17.202Z,8.23
2017-08-31T03:39:45.517Z,14.53
2017-08-31T03:42:14.824Z,12.10
2017-08-31T03:44:43.100Z,8.83
2017-08-31T03:47:11.398Z,8.93
2017-08-31T03:49:39.770Z,17.20
2017-08-31T03:52:08.459Z,9.83
2017-08-31T03:54:37.079Z,15.00
2017-08-31T03:57:06.690Z,10.23
2017-08-31T03:59:36.128Z,9.53
2017-08-31T04:02:04.529Z,12.23
2017-08-31T04:04:33.316Z,8.57
2017-08-31T04:07:01.856Z,11.70
2017-08-31T04:09:30.357Z,14.67
2017-08-31T04:11:59.238Z,11.23
2017-08-31T04:14:28.236Z,10.97
2017-08-31T04:16:56.523Z,12.73
2017-08-31T04:19:25.098Z,11.13
2017-08-31T04:21:53.394Z,8.77
2017-08-31T04:24:23.318Z,11.97
2017-08-31T04:26:51.697Z,14.90
2017-08-31T04:29:19.997Z,11.93
2017-08-31T04:31:48.664Z,11.20
2017-08-31T04:34:16.951Z,10.60
2017-08-31T04:36:45.248Z,10.57
2017-08-31T04:39:13.784Z,11.23
2017-08-31T04:41:42.104Z,16.30
2017-08-31T04:44:10.756Z,10.10
2017-08-31T04:46:39.085Z,11.60
2017-08-31T04:49:07.452Z,9.63
2017-08-31T04:51:36.040Z,11.40
2017-08-31T04:54:04.368Z,13.80
2017-08-31T04:56:33.601Z,11.57
2017-08-31T04:59:02.791Z,11.47
2017-08-31T05:01:31.086Z,13.80
2017-08-31T05:04:00.006Z,13.50
2017-08-31T05:06:29.891Z,12.83
2017-08-31T05:08:58.468Z,12.13
2017-08-31T05:11:27.159Z,13.40
2017-08-31T05:13:56.816Z,12.17
2017-08-31T05:16:26.344Z,12.57
2017-08-31T05:18:56.190Z,13.40
2017-08-31T05:21:25.705Z,13.67
2017-08-31T05:23:57.070Z,12.40
2017-08-31T05:26:26.814Z,13.13
2017-08-31T05:28:56.668Z,14.87
2017-08-31T05:31:26.859Z,12.57
2017-08-31T05:33:56.393Z,13.63
2017-08-31T05:36:25.928Z,12.90
2017-08-31T05:38:55.588Z,21.40
2017-08-31T05:41:25.430Z,19.20
2017-08-31T05:43:55.738Z,14.60
2017-08-31T05:46:25.576Z,16.40
2017-08-31T05:48:55.148Z,13.93
2017-08-31T05:51:24.685Z,14.53
2017-08-31T05:53:54.515Z,16.43
2017-08-31T05:56:24.078Z,15.40
2017-08-31T05:58:53.764Z,18.47
2017-08-31T06:01:24.859Z,14.90
2017-08-31T06:03:54.448Z,19.30
2017-08-31T06:06:24.320Z,16.93
2017-08-31T06:08:53.888Z,17.63
2017-08-31T06:11:23.763Z,13.07
2017-08-31T06:13:54.029Z,14.77
2017-08-31T06:16:23.630Z,14.00
2017-08-31T06:18:53.823Z,13.97
2017-08-31T06:21:23.350Z,14.80
2017-08-31T06:23:52.976Z,24.23
2017-08-31T06:26:22.502Z,22.80
2017-08-31T06:28:52.064Z,16.13
2017-08-31T06:31:21.939Z,14.20
2017-08-31T06:33:51.514Z,16.63
2017-08-31T06:36:21.332Z,18.10
2017-08-31T06:38:50.884Z,18.30
2017-08-31T06:41:20.408Z,15.00
2017-08-31T06:43:50.639Z,13.57
2017-08-31T06:46:20.253Z,13.50
2017-08-31T06:48:50.056Z,16.87
2017-08-31T06:51:19.612Z,16.40
2017-08-31T06:53:49.157Z,16.10
2017-08-31T06:56:19.284Z,22.60
2017-08-31T06:58:48.856Z,14.60
2017-08-31T07:01:19.347Z,16.30
2017-08-31T07:03:49.476Z,13.77
2017-08-31T07:06:19.756Z,15.77
2017-08-31T07:08:49.290Z,16.50
2017-08-31T07:11:19.098Z,17.97
2017-08-31T07:13:48.656Z,12.13
2017-08-31T07:16:18.188Z,15.33
2017-08-31T07:18:47.721Z,13.50
2017-08-31T07:21:17.304Z,21.20
2017-08-31T07:23:47.168Z,14.80
2017-08-31T07:26:18.496Z,14.30
2017-08-31T07:28:49.290Z,12.27
2017-08-31T07:31:19.245Z,13.23
2017-08-31T07:33:49.124Z,16.03
2017-08-31T07:36:18.615Z,10.83
2017-08-31T07:38:48.170Z,14.40
2017-08-31T07:41:23.566Z,15.90
2017-08-31T07:43:53.599Z,12.33
2017-08-31T07:46:23.555Z,10.47
2017-08-31T07:48:53.093Z,14.93
2017-08-31T07:51:24.276Z,10.47
2017-08-31T07:53:53.778Z,14.33
2017-08-31T07:56:23.349Z,15.93
2017-08-31T07:58:53.265Z,14.97
2017-08-31T08:01:23.725Z,16.83
2017-08-31T08:03:54.487Z,12.00
2017-08-31T08:06:24.422Z,12.90
2017-08-31T08:08:54.442Z,14.70
2017-08-31T08:11:23.986Z,11.00
2017-08-31T08:13:53.578Z,11.83
2017-08-31T08:16:23.554Z,13.13
2017-08-31T08:18:53.157Z,14.47
2017-08-31T08:21:22.989Z,11.17
2017-08-31T08:23:52.952Z,11.70
2017-08-31T08:26:22.477Z,9.93
2017-08-31T08:28:53.202Z,14.03
2017-08-31T08:31:22.706Z,17.10
2017-08-31T08:33:52.596Z,10.73
2017-08-31T08:36:22.174Z,9.90
2017-08-31T08:38:52.077Z,8.73
2017-08-31T08:41:21.641Z,12.83
2017-08-31T08:43:51.232Z,11.77
2017-08-31T08:46:21.861Z,16.03
2017-08-31T08:48:51.396Z,10.70
2017-08-31T08:51:21.517Z,14.13
2017-08-31T08:53:51.411Z,11.83
2017-08-31T08:56:21.144Z,11.80
2017-08-31T08:58:50.693Z,12.50
2017-08-31T09:01:20.265Z,10.27
2017-08-31T09:03:49.816Z,17.07
2017-08-31T09:06:19.817Z,17.47
2017-08-31T09:08:49.329Z,10.93
2017-08-31T09:11:18.889Z,16.57
2017-08-31T09:13:48.762Z,9.33
2017-08-31T09:16:19.504Z,14.13
2017-08-31T09:18:49.408Z,10.90
2017-08-31T09:21:19.235Z,11.90
2017-08-31T09:23:47.405Z,14.53
2017-08-31T09:26:17.388Z,14.80
2017-08-31T09:28:46.397Z,11.43
2017-08-31T09:31:14.773Z,12.97
2017-08-31T09:33:43.093Z,10.97
2017-08-31T09:36:11.397Z,10.80
2017-08-31T09:38:40.035Z,10.83
2017-08-31T09:41:08.365Z,9.87
2017-08-31T09:43:36.832Z,14.77
2017-08-31T09:46:06.395Z,11.40
2017-08-31T09:48:35.035Z,10.70
2017-08-31T09:51:03.701Z,13.00
2017-08-31T09:53:32.000Z,10.33
2017-08-31T09:56:00.320Z,11.33
2017-08-31T09:58:29.962Z,11.30
2017-08-31T10:00:59.465Z,18.60
2017-08-31T10:03:29.286Z,18.00
2017-08-31T10:05:58.780Z,12.67
2017-08-31T10:08:28.308Z,10.87
2017-08-31T10:10:57.818Z,11.33
2017-08-31T10:13:27.357Z,11.10
2017-08-31T10:15:57.251Z,11.50
2017-08-31T10:18:28.843Z,16.83
2017-08-31T10:20:58.709Z,9.57
2017-08-31T10:23:28.246Z,13.03
2017-08-31T10:25:57.754Z,9.93
2017-08-31T10:28:28.265Z,17.17
2017-08-31T10:30:57.784Z,9.77
2017-08-31T10:33:27.597Z,9.90
2017-08-31T10:35:57.115Z,14.90
2017-08-31T10:38:26.630Z,11.00
2017-08-31T10:40:56.904Z,10.70
2017-08-31T10:43:27.005Z,9.67
2017-08-31T10:45:56.893Z,8.97
2017-08-31T10:48:26.793Z,9.80
2017-08-31T10:50:56.316Z,10.97
2017-08-31T10:53:26.810Z,10.13
2017-08-31T10:55:55.057Z,11.20
2017-08-31T10:58:23.747Z,9.37
2017-08-31T11:00:52.870Z,9.63
2017-08-31T11:03:22.182Z,8.47
2017-08-31T11:05:50.501Z,7.80
2017-08-31T11:08:18.809Z,7.57
2017-08-31T11:10:47.828Z,10.27
2017-08-31T11:13:16.845Z,11.27
2017-08-31T11:15:45.836Z,7.53
2017-08-31T11:18:14.576Z,14.70
2017-08-31T11:20:43.677Z,6.23
2017-08-31T11:23:11.966Z,8.30
2017-08-31T11:25:40.312Z,9.17
2017-08-31T11:28:08.976Z,5.57
2017-08-31T11:30:38.963Z,8.23
2017-08-31T11:33:07.172Z,6.73
2017-08-31T11:35:37.415Z,8.27
2017-08-31T11:38:06.929Z,7.00
2017-08-31T11:40:36.470Z,5.80
2017-08-31T11:43:06.302Z,8.60
2017-08-31T11:45:35.844Z,10.63
2017-08-31T11:48:04.750Z,7.33
2017-08-31T11:50:35.047Z,6.57
2017-08-31T11:53:05.301Z,7.30
2017-08-31T11:55:33.834Z,7.27
2017-08-31T11:58:02.219Z,4.47
2017-08-31T12:00:31.415Z,6.93
2017-08-31T12:02:59.753Z,6.13
2017-08-31T12:05:28.856Z,10.03
2017-08-31T12:07:57.492Z,3.93
2017-08-31T12:10:26.690Z,5.80
2017-08-31T12:12:55.713Z,6.30
2017-08-31T12:15:24.944Z,3.40
2017-08-31T12:17:54.011Z,4.87
2017-08-31T12:20:24.028Z,4.63
2017-08-31T12:22:52.360Z,6.10
2017-08-31T12:25:21.499Z,6.20
2017-08-31T12:27:50.162Z,10.83
2017-08-31T12:30:18.444Z,4.70
2017-08-31T12:32:46.795Z,6.40
2017-08-31T12:35:15.365Z,6.60
2017-08-31T12:37:43.622Z,3.80
2017-08-31T12:40:12.729Z,5.90
2017-08-31T12:42:42.634Z,4.43
2017-08-31T12:45:10.882Z,6.13
2017-08-31T12:47:42.101Z,11.30
2017-08-31T12:50:10.308Z,11.17
2017-08-31T12:52:38.691Z,12.67
2017-08-31T12:55:07.280Z,10.57
2017-08-31T12:57:35.746Z,12.33
2017-08-31T13:00:05.505Z,11.27
2017-08-31T13:02:33.898Z,14.53
2017-08-31T13:05:02.187Z,13.37
2017-08-31T13:07:30.869Z,12.70
2017-08-31T13:10:00.021Z,13.53
2017-08-31T13:12:28.943Z,15.00
2017-08-31T13:14:57.985Z,14.80
2017-08-31T13:17:26.799Z,27.13
2017-08-31T13:19:55.470Z,27.07
2017-08-31T13:22:23.951Z,32.57
2017-08-31T13:24:52.581Z,33.00
2017-08-31T13:27:21.777Z,30.30
2017-08-31T13:29:50.631Z,33.00
2017-08-31T13:32:19.349Z,36.90
2017-08-31T13:34:47.661Z,34.83
2017-08-31T13:37:15.983Z,37.20
2017-08-31T13:39:44.683Z,40.83
2017-08-31T13:42:13.101Z,32.07
2017-08-31T13:44:42.294Z,25.40
2017-08-31T13:47:10.625Z,25.10
2017-08-31T13:49:39.519Z,28.23
2017-08-31T13:52:07.892Z,21.77
2017-08-31T13:54:36.297Z,18.73
2017-08-31T13:57:04.689Z,14.33
2017-08-31T13:59:34.349Z,18.17
2017-08-31T14:02:03.023Z,16.30
2017-08-31T14:04:31.967Z,18.30
2017-08-31T14:07:01.518Z,13.70
2017-08-31T14:09:29.856Z,16.93
2017-08-31T14:11:58.873Z,14.30
2017-08-31T14:14:27.936Z,12.53
2017-08-31T14:16:56.258Z,14.67
2017-08-31T14:19:25.882Z,13.43
2017-08-31T14:21:54.197Z,12.03
2017-08-31T14:24:23.590Z,10.23
2017-08-31T14:26:53.287Z,10.80
2017-08-31T14:29:23.147Z,11.73
2017-08-31T14:31:52.708Z,9.83
2017-08-31T14:34:23.182Z,9.33
2017-08-31T14:36:52.712Z,8.27
2017-08-31T14:39:22.325Z,8.93
2017-08-31T14:41:51.874Z,14.13
2017-08-31T14:44:21.403Z,8.37
2017-08-31T14:46:51.632Z,7.13
2017-08-31T14:49:21.483Z,6.83
2017-08-31T14:51:51.359Z,8.77
2017-08-31T14:54:21.425Z,7.63
2017-08-31T14:56:50.972Z,6.60
2017-08-31T14:59:20.087Z,5.40
2017-08-31T15:01:51.244Z,9.10
2017-08-31T15:04:21.869Z,6.07
2017-08-31T15:06:52.253Z,5.80
2017-08-31T15:09:22.545Z,6.57
2017-08-31T15:11:50.718Z,7.53
2017-08-31T15:14:19.436Z,6.10
2017-08-31T15:16:47.759Z,6.70
2017-08-31T15:19:17.319Z,6.93
2017-08-31T15:21:46.664Z,6.70
2017-08-31T15:24:15.280Z,6.87
2017-08-31T15:26:43.582Z,7.37
2017-08-31T15:29:12.649Z,6.50
2017-08-31T15:31:43.443Z,6.10
2017-08-31T15:34:13.233Z,6.07
2017-08-31T15:36:42.908Z,6.43
2017-08-31T15:39:12.447Z,5.23
2017-08-31T15:41:42.220Z,3.50
2017-08-31T15:44:11.123Z,9.70
2017-08-31T15:46:39.780Z,3.90
2017-08-31T15:49:10.320Z,6.70
2017-08-31T15:51:40.225Z,3.63
2017-08-31T15:54:08.457Z,3.80
2017-08-31T15:56:36.786Z,4.00
2017-08-31T15:59:06.475Z,3.50
2017-08-31T16:01:35.174Z,3.70
2017-08-31T16:04:05.343Z,4.13
2017-08-31T16:06:33.656Z,3.20
2017-08-31T16:09:01.933Z,3.17
2017-08-31T16:11:32.022Z,13.13
2017-08-31T16:14:00.826Z,4.43
2017-08-31T16:16:29.825Z,5.27
2017-08-31T16:18:58.119Z,4.37
2017-08-31T16:21:26.434Z,3.50
2017-08-31T16:23:54.983Z,4.90
2017-08-31T16:26:23.280Z,3.40
2017-08-31T16:28:51.854Z,3.57
2017-08-31T16:31:20.570Z,4.00
2017-08-31T16:33:48.843Z,3.27
2017-08-31T16:36:17.683Z,3.63
2017-08-31T16:38:46.529Z,3.00
2017-08-31T16:41:15.216Z,2.83
2017-08-31T16:43:43.505Z,2.73
2017-08-31T16:46:11.788Z,3.07
2017-08-31T16:48:40.795Z,3.10
2017-08-31T16:51:09.103Z,2.37
2017-08-31T16:53:37.736Z,2.47
2017-08-31T16:56:06.903Z,3.07
2017-08-31T16:58:35.589Z,2.63
2017-08-31T17:01:04.185Z,2.50
2017-08-31T17:03:32.481Z,2.53
2017-08-31T17:06:00.775Z,2.07
2017-08-31T17:08:29.980Z,3.60
2017-08-31T17:10:58.261Z,3.07
2017-08-31T17:13:26.905Z,3.03
2017-08-31T17:15:55.438Z,3.10
2017-08-31T17:18:23.727Z,3.47
2017-08-31T17:20:52.093Z,4.70
2017-08-31T17:23:20.401Z,3.20
2017-08-31T17:25:49.345Z,2.50
2017-08-31T17:28:17.651Z,3.77
2017-08-31T17:30:45.960Z,2.47
2017-08-31T17:33:14.969Z,5.93
2017-08-31T17:35:43.278Z,2.43
2017-08-31T17:38:12.603Z,2.97
2017-08-31T17:40:40.942Z,3.07
2017-08-31T17:43:09.268Z,3.43
2017-08-31T17:45:37.920Z,2.57
2017-08-31T17:48:06.207Z,2.93
2017-08-31T17:50:34.849Z,8.37
2017-08-31T17:53:03.169Z,3.40
2017-08-31T17:55:31.469Z,3.70
2017-08-31T17:57:59.795Z,2.80
2017-08-31T18:00:28.099Z,3.13
2017-08-31T18:02:56.681Z,4.30
2017-08-31T18:05:25.059Z,2.50
2017-08-31T18:07:53.957Z,2.73
2017-08-31T18:10:23.982Z,2.77
2017-08-31T18:12:53.161Z,8.23
2017-08-31T18:15:21.868Z,4.23
2017-08-31T18:17:50.172Z,2.20
2017-08-31T18:20:19.257Z,2.40
2017-08-31T18:22:47.846Z,4.50
2017-08-31T18:25:16.131Z,2.87
2017-08-31T18:27:44.442Z,3.20
2017-08-31T18:30:13.854Z,3.13
2017-08-31T18:32:42.666Z,2.90
2017-08-31T18:35:11.014Z,2.60
2017-08-31T18:37:39.365Z,3.27
2017-08-31T18:40:08.300Z,3.57
2017-08-31T18:42:37.000Z,4.47
2017-08-31T18:45:05.367Z,2.40
2017-08-31T18:47:33.665Z,2.30
2017-08-31T18:50:02.240Z,5.80
2017-08-31T18:52:30.558Z,4.67
2017-08-31T18:54:59.165Z,3.30
2017-08-31T18:57:27.945Z,3.63
2017-08-31T18:59:56.269Z,3.53
2017-08-31T19:02:26.002Z,6.57
2017-08-31T19:04:54.271Z,3.87
2017-08-31T19:07:23.211Z,4.77
2017-08-31T19:09:51.850Z,7.00
2017-08-31T19:12:20.138Z,4.50
2017-08-31T19:14:48.413Z,4.60
2017-08-31T19:17:17.099Z,4.80
2017-08-31T19:19:45.411Z,2.70
2017-08-31T19:22:13.776Z,3.53
2017-08-31T19:24:42.063Z,3.53
2017-08-31T19:27:10.378Z,4.90
2017-08-31T19:29:39.041Z,4.10
2017-08-31T19:32:07.326Z,3.70
2017-08-31T19:34:35.920Z,4.90
2017-08-31T19:37:04.499Z,5.07
2017-08-31T19:39:33.616Z,4.10
2017-08-31T19:42:02.520Z,3.50
2017-08-31T19:44:30.836Z,3.83
2017-08-31T19:46:59.366Z,3.17
2017-08-31T19:49:28.037Z,3.37
2017-08-31T19:51:56.334Z,3.90
2017-08-31T19:54:24.641Z,3.67
2017-08-31T19:56:53.895Z,3.23
2017-08-31T19:59:22.201Z,3.40
2017-08-31T20:01:50.805Z,3.20
2017-08-31T20:04:20.766Z,2.43
2017-08-31T20:06:50.328Z,3.30
2017-08-31T20:09:18.914Z,2.70
2017-08-31T20:11:47.302Z,2.50
2017-08-31T20:14:15.685Z,2.30
2017-08-31T20:16:44.002Z,2.77
2017-08-31T20:19:12.272Z,2.57
2017-08-31T20:21:41.212Z,3.57
2017-08-31T20:24:10.935Z,3.50
2017-08-31T20:26:39.248Z,2.80
2017-08-31T20:29:07.900Z,2.87
2017-08-31T20:31:36.255Z,3.13
2017-08-31T20:34:04.525Z,4.83
2017-08-31T20:36:33.135Z,6.50
2017-08-31T20:39:01.453Z,2.40
2017-08-31T20:41:29.725Z,2.80
2017-08-31T20:43:58.393Z,3.07
2017-08-31T20:46:26.673Z,5.00
2017-08-31T20:48:55.794Z,3.80
2017-08-31T20:51:24.115Z,3.67
2017-08-31T20:53:52.450Z,4.63
2017-08-31T20:56:21.052Z,3.60
2017-08-31T20:58:50.176Z,3.23
2017-08-31T21:01:18.458Z,3.20
2017-08-31T21:03:47.110Z,3.50
2017-08-31T21:06:15.417Z,2.97
2017-08-31T21:08:43.834Z,3.50
2017-08-31T21:11:13.612Z,4.03
2017-08-31T21:13:42.231Z,2.83
2017-08-31T21:16:10.556Z,3.10
2017-08-31T21:18:38.956Z,4.00
2017-08-31T21:21:07.582Z,3.53
2017-08-31T21:23:38.784Z,5.60
2017-08-31T21:26:07.193Z,4.27
2017-08-31T21:28:35.941Z,3.63
2017-08-31T21:31:04.756Z,4.30
2017-08-31T21:33:33.459Z,3.60
2017-08-31T21:36:04.819Z,5.40
2017-08-31T21:38:33.193Z,4.07
2017-08-31T21:41:01.512Z,3.80
2017-08-31T21:43:29.877Z,7.60
2017-08-31T21:45:58.169Z,4.00
2017-08-31T21:48:26.741Z,3.03
2017-08-31T21:50:55.452Z,3.17
2017-08-31T21:53:23.770Z,3.30
2017-08-31T21:55:52.124Z,3.80
2017-08-31T21:58:21.039Z,4.87
2017-08-31T22:00:49.627Z,7.40
2017-08-31T22:03:18.835Z,4.50
2017-08-31T22:05:47.303Z,3.43
2017-08-31T22:08:15.933Z,4.50
2017-08-31T22:10:44.601Z,3.40
2017-08-31T22:13:12.900Z,3.27
2017-08-31T22:15:41.528Z,4.70
2017-08-31T22:18:10.420Z,4.93
2017-08-31T22:20:39.454Z,3.30
2017-08-31T22:23:08.076Z,3.60
2017-08-31T22:25:36.449Z,4.73
2017-08-31T22:28:04.768Z,4.83
2017-08-31T22:30:33.332Z,4.20
2017-08-31T22:33:04.219Z,3.83
2017-08-31T22:35:34.146Z,5.00
2017-08-31T22:38:02.677Z,5.10
2017-08-31T22:40:32.446Z,7.13
2017-08-31T22:43:02.253Z,5.10
2017-08-31T22:45:31.805Z,5.30
2017-08-31T22:47:59.960Z,4.80
2017-08-31T22:50:28.290Z,6.77
2017-08-31T22:52:56.594Z,4.90
2017-08-31T22:55:25.283Z,4.77
2017-08-31T22:58:15.196Z,5.63
2017-08-31T23:00:44.945Z,6.33
2017-08-31T23:03:13.235Z,6.93
2017-08-31T23:05:41.535Z,5.43
2017-08-31T23:08:10.054Z,5.57
2017-08-31T23:10:40.115Z,6.80
2017-08-31T23:13:09.418Z,4.83
2017-08-31T23:15:37.735Z,5.20
2017-08-31T23:18:06.043Z,4.57
2017-08-31T23:20:34.356Z,5.27
2017-08-31T23:23:02.860Z,5.33
2017-08-31T23:25:32.334Z,5.40
2017-08-31T23:28:00.636Z,4.73
2017-08-31T23:30:28.921Z,6.30
2017-08-31T23:32:57.513Z,5.07
2017-08-31T23:35:26.834Z,5.87
2017-08-31T23:37:55.951Z,5.43
2017-08-31T23:40:25.022Z,4.67
2017-08-31T23:42:53.355Z,4.97
2017-08-31T23:45:21.938Z,5.50
2017-08-31T23:47:50.230Z,7.67
2017-08-31T23:50:18.516Z,8.23
2017-08-31T23:52:47.107Z,5.03
2017-08-31T23:55:15.388Z,6.50
2017-08-31T23:57:44.017Z,5.57
